Time;durP1;ratioP1;P1;durP2;ratioP2;P2;SDS_P1;SDS_P2;PMS_P1;PMS_P2;Temp;Humidity;BMP_temperature;BMP_pressure;BME280_temperature;BME280_humidity;BME280_pressure;Samples;Min_cycle;Max_cycle;Signal;HPM_P1;HPM_P2
2023/10/04 00:00:32;;;;;;;1.80;0.90;;;19.80;60.00;19.00;97627.00;;;;4971324;28;20206;-90
2023/10/04 00:03:01;;;;;;;1.03;1.00;;;19.80;60.20;19.00;97623.00;;;;4970682;28;20223;-89
2023/10/04 00:05:30;;;;;;;1.40;1.00;;;19.80;60.40;19.00;97630.00;;;;4971043;28;20671;-89
2023/10/04 00:07:59;;;;;;;0.70;0.70;;;19.80;60.50;19.00;97631.00;;;;4970957;28;20719;-89
2023/10/04 00:10:26;;;;;;;0.50;0.43;;;19.80;60.70;18.90;97634.00;;;;4970944;28;20228;-90
2023/10/04 00:12:58;;;;;;;0.63;0.63;;;19.80;61.00;18.90;97634.00;;;;4971746;28;20219;-89
2023/10/04 00:15:28;;;;;;;0.70;0.70;;;19.70;61.20;18.90;97638.00;;;;4965430;28;20196;-89
2023/10/04 00:17:57;;;;;;;0.70;0.70;;;19.70;61.20;18.90;97640.00;;;;4971203;28;20281;-89
2023/10/04 00:20:32;;;;;;;1.30;0.70;;;19.70;61.40;18.90;97630.00;;;;4962070;28;20574;-89
2023/10/04 00:23:05;;;;;;;1.00;0.80;;;19.70;61.50;18.90;97637.00;;;;4970592;28;20662;-89
2023/10/04 00:25:35;;;;;;;0.70;0.70;;;19.70;61.40;18.90;97634.00;;;;4969693;28;20269;-89
2023/10/04 00:28:05;;;;;;;1.00;0.90;;;19.70;61.60;18.80;97636.00;;;;4969170;28;20335;-90
2023/10/04 00:30:33;;;;;;;1.13;0.97;;;19.70;61.60;18.80;97643.00;;;;4969185;28;20289;-89
2023/10/04 00:33:06;;;;;;;0.80;0.63;;;19.60;61.50;18.80;97639.00;;;;4968833;28;20268;-89
2023/10/04 00:35:40;;;;;;;1.00;0.67;;;19.60;61.60;18.80;97636.00;;;;4961606;28;20689;-89
2023/10/04 00:38:09;;;;;;;1.00;0.63;;;19.60;61.60;18.80;97644.00;;;;4968941;28;20255;-89
2023/10/04 00:40:38;;;;;;;1.13;0.67;;;19.60;62.40;18.80;97639.00;;;;4965227;28;20200;-88
2023/10/04 00:43:19;;;;;;;1.00;0.87;;;19.60;61.70;18.70;97627.00;;;;4960712;28;20208;-89
2023/10/04 00:45:48;;;;;;;1.70;1.10;;;19.60;61.70;18.70;97626.00;;;;4963745;28;20215;-89
2023/10/04 00:48:20;;;;;;;0.67;0.67;;;19.50;61.60;18.70;97631.00;;;;4970293;28;20224;-88
2023/10/04 00:50:48;;;;;;;0.83;0.70;;;19.50;61.70;18.60;97624.00;;;;4967884;28;20208;-89
2023/10/04 00:53:22;;;;;;;0.80;0.63;;;19.50;61.70;18.60;97627.00;;;;4953160;28;20216;-89
2023/10/04 00:55:53;;;;;;;1.57;0.83;;;19.50;61.70;18.60;97629.00;;;;4963353;28;20200;-89
2023/10/04 00:58:22;;;;;;;0.80;0.70;;;19.40;61.60;18.60;97616.00;;;;4966747;28;20207;-89
2023/10/04 01:00:50;;;;;;;1.23;0.80;;;19.40;61.60;18.50;97622.00;;;;4975229;28;20203;-89
2023/10/04 01:03:22;;;;;;;1.07;0.80;;;19.40;61.80;18.50;97611.00;;;;4975214;28;20235;-89
2023/10/04 01:05:51;;;;;;;0.80;0.80;;;19.40;61.70;18.40;97620.00;;;;4974992;28;20215;-89
2023/10/04 01:08:32;;;;;;;1.23;1.03;;;19.30;61.70;18.40;97625.00;;;;4975402;28;20207;-89
2023/10/04 01:10:59;;;;;;;1.30;0.80;;;19.30;61.90;18.40;97618.00;;;;4975020;28;20214;-89
2023/10/04 01:13:42;;;;;;;0.70;0.70;;;19.30;61.90;18.40;97618.00;;;;4966887;28;20285;-90
2023/10/04 01:16:16;;;;;;;0.73;0.73;;;19.30;62.40;18.30;97612.00;;;;4965113;28;20231;-89
2023/10/04 01:18:52;;;;;;;0.80;0.80;;;19.20;62.10;18.30;97619.00;;;;4973281;28;20210;-89
2023/10/04 01:21:26;;;;;;;0.90;0.70;;;19.20;62.10;18.30;97615.00;;;;4971998;28;20211;-88
2023/10/04 01:23:56;;;;;;;0.60;0.60;;;19.20;62.20;18.20;97619.00;;;;4971034;28;20226;-89
2023/10/04 01:26:28;;;;;;;0.80;0.60;;;19.20;62.20;18.20;97600.00;;;;4972231;28;20235;-89
2023/10/04 01:29:03;;;;;;;1.87;0.87;;;19.10;62.10;18.20;97611.00;;;;4971652;28;20239;-89
2023/10/04 01:31:36;;;;;;;0.70;0.70;;;19.10;62.10;18.10;97611.00;;;;4971350;28;20214;-89
2023/10/04 01:34:08;;;;;;;0.90;0.80;;;19.10;62.00;18.00;97607.00;;;;4971457;28;20239;-89
2023/10/04 01:36:38;;;;;;;0.80;0.60;;;19.00;62.00;18.00;97607.00;;;;4973510;28;20337;-89
2023/10/04 01:39:08;;;;;;;1.07;0.90;;;19.00;62.00;17.90;97616.00;;;;4972883;28;20238;-89
2023/10/04 01:41:38;;;;;;;0.67;0.63;;;18.90;62.10;17.90;97613.00;;;;4967802;28;20290;-89
2023/10/04 01:44:09;;;;;;;0.70;0.70;;;18.90;62.10;17.80;97601.00;;;;4962897;28;20228;-89
2023/10/04 01:46:37;;;;;;;0.60;0.60;;;18.80;62.00;17.80;97613.00;;;;4972972;28;20310;-89
2023/10/04 01:49:07;;;;;;;1.70;0.73;;;18.80;62.00;17.70;97608.00;;;;4957142;28;20206;-89
2023/10/04 01:51:34;;;;;;;0.73;0.67;;;18.70;62.00;17.60;97602.00;;;;4972683;28;20257;-89
2023/10/04 01:54:03;;;;;;;1.53;0.90;;;18.70;62.00;17.60;97602.00;;;;4972932;28;20239;-89
2023/10/04 01:56:31;;;;;;;1.63;1.17;;;18.60;62.00;17.50;97597.00;;;;4973210;28;20231;-89
2023/10/04 01:58:59;;;;;;;1.70;0.90;;;18.50;62.10;17.50;97602.00;;;;4972674;28;20215;-89
2023/10/04 02:01:26;;;;;;;0.70;0.70;;;18.50;62.30;17.40;97596.00;;;;4973313;28;20207;-89
2023/10/04 02:03:54;;;;;;;0.80;0.80;;;18.50;62.40;17.30;97586.00;;;;4973159;28;20227;-89
2023/10/04 02:06:22;;;;;;;1.43;0.90;;;18.40;62.60;17.30;97585.00;;;;4965942;28;20219;-89
2023/10/04 02:08:49;;;;;;;1.33;0.80;;;18.30;62.70;17.20;97583.00;;;;4966033;28;20208;-89
2023/10/04 02:11:21;;;;;;;0.70;0.70;;;18.30;62.70;17.20;97589.00;;;;4971777;28;20204;-89
2023/10/04 02:13:50;;;;;;;0.87;0.80;;;18.30;62.70;17.10;97596.00;;;;4963961;28;20211;-89
2023/10/04 02:16:19;;;;;;;1.83;1.00;;;18.20;62.90;17.10;97591.00;;;;4971505;28;20441;-89
2023/10/04 02:18:47;;;;;;;1.07;0.97;;;18.20;63.10;17.10;97575.00;;;;4956729;28;20295;-89
2023/10/04 02:21:15;;;;;;;1.10;0.63;;;18.10;64.00;17.00;97588.00;;;;4963239;28;20235;-88
2023/10/04 02:23:42;;;;;;;1.23;0.90;;;18.10;63.60;17.00;97589.00;;;;4964477;28;20232;-89
2023/10/04 02:26:10;;;;;;;1.30;1.10;;;18.00;63.80;17.00;97579.00;;;;4969452;28;20322;-89
2023/10/04 02:28:38;;;;;;;0.70;0.70;;;18.00;64.00;17.00;97573.00;;;;4970568;28;20775;-89
2023/10/04 02:31:07;;;;;;;1.23;1.13;;;18.00;64.20;17.00;97577.00;;;;4968387;28;20250;-89
2023/10/04 02:33:34;;;;;;;1.80;0.90;;;17.90;64.30;17.00;97583.00;;;;4967273;28;20243;-89
2023/10/04 02:36:06;;;;;;;1.13;0.70;;;18.00;64.30;16.90;97573.00;;;;4969709;28;20647;-89
2023/10/04 02:38:39;;;;;;;1.20;0.70;;;17.90;64.30;16.90;97574.00;;;;4971804;28;20290;-89
2023/10/04 02:41:15;;;;;;;1.40;0.87;;;17.90;64.40;16.90;97576.00;;;;4972816;28;20273;-89
2023/10/04 02:43:45;;;;;;;1.33;1.00;;;17.90;65.30;16.90;97568.00;;;;4971846;28;20210;-89
2023/10/04 02:46:28;;;;;;;0.70;0.70;;;17.90;64.70;16.90;97579.00;;;;4969858;28;20228;-89
2023/10/04 02:49:02;;;;;;;1.03;0.60;;;17.90;65.00;16.90;97577.00;;;;4971646;28;20229;-89
2023/10/04 02:51:36;;;;;;;1.40;0.83;;;17.90;64.80;16.90;97574.00;;;;4964155;28;20211;-89
2023/10/04 02:54:04;;;;;;;0.83;0.73;;;17.90;65.00;16.90;97579.00;;;;4972444;28;20281;-89
2023/10/04 02:56:33;;;;;;;1.40;0.80;;;17.90;64.80;16.90;97582.00;;;;4967870;28;20219;-89
2023/10/04 02:59:00;;;;;;;1.00;0.70;;;17.90;64.80;16.80;97582.00;;;;4952846;28;20204;-89
2023/10/04 03:01:30;;;;;;;1.57;1.47;;;17.80;64.70;16.80;97573.00;;;;4961174;28;20311;-89
2023/10/04 03:04:01;;;;;;;1.37;0.90;;;17.80;64.90;16.80;97580.00;;;;4960839;28;20322;-89
2023/10/04 03:06:28;;;;;;;2.50;0.83;;;17.80;64.90;16.80;97588.00;;;;4971855;28;20223;-89
2023/10/04 03:08:56;;;;;;;1.93;1.17;;;17.80;65.00;16.80;97587.00;;;;4955261;28;20488;-90
2023/10/04 03:11:31;;;;;;;1.70;0.90;;;17.70;65.00;16.80;97584.00;;;;4971648;28;20200;-89
2023/10/04 03:13:59;;;;;;;1.00;0.73;;;17.70;65.00;16.80;97591.00;;;;4969979;28;20297;-90
2023/10/04 03:16:27;;;;;;;1.10;1.00;;;17.70;64.90;16.70;97590.00;;;;4968941;28;20227;-89
2023/10/04 03:18:55;;;;;;;1.03;0.93;;;17.70;64.90;16.70;97586.00;;;;4970059;28;20250;-89
2023/10/04 03:21:26;;;;;;;1.20;0.80;;;17.70;64.80;16.70;97592.00;;;;4962180;28;20207;-89
2023/10/04 03:23:55;;;;;;;1.57;0.93;;;17.70;64.70;16.70;97587.00;;;;4970113;28;20256;-89
2023/10/04 03:26:22;;;;;;;1.83;0.90;;;17.60;64.80;16.70;97583.00;;;;4962082;28;21007;-89
2023/10/04 03:28:49;;;;;;;1.07;0.80;;;17.60;64.90;16.60;97581.00;;;;4963462;28;20207;-89
2023/10/04 03:31:18;;;;;;;1.03;0.73;;;17.60;64.90;16.60;97590.00;;;;4963987;28;20234;-89
2023/10/04 03:33:49;;;;;;;1.47;0.90;;;17.60;64.80;16.60;97595.00;;;;4972255;28;20697;-88
2023/10/04 03:36:18;;;;;;;0.63;0.60;;;17.60;64.80;16.60;97584.00;;;;4963367;28;20462;-89
2023/10/04 03:38:46;;;;;;;2.03;1.10;;;17.60;64.70;16.50;97577.00;;;;4971402;28;20582;-89
2023/10/04 03:41:15;;;;;;;0.90;0.83;;;17.50;64.60;16.50;97569.00;;;;4970947;28;20207;-89
2023/10/04 03:43:42;;;;;;;1.73;0.90;;;17.50;64.60;16.40;97570.00;;;;4970873;28;20230;-89
2023/10/04 03:46:16;;;;;;;1.10;1.00;;;17.50;64.40;16.40;97569.00;;;;4971388;28;20263;-89
2023/10/04 03:48:51;;;;;;;0.90;0.70;;;17.50;64.30;16.30;97573.00;;;;4971130;28;20214;-89
2023/10/04 03:51:30;;;;;;;1.00;0.83;;;17.40;64.20;16.30;97574.00;;;;4970533;28;20508;-89
2023/10/04 03:54:07;;;;;;;1.30;1.20;;;17.40;64.00;16.20;97579.00;;;;4971407;28;20286;-88
2023/10/04 03:56:41;;;;;;;0.93;0.63;;;17.30;63.90;16.10;97571.00;;;;4966280;28;20285;-89
2023/10/04 03:59:16;;;;;;;0.90;0.67;;;17.30;63.90;16.00;97573.00;;;;4961615;28;20207;-89
2023/10/04 04:01:49;;;;;;;1.10;0.80;;;17.20;64.00;16.00;97563.00;;;;4970657;28;20211;-89
2023/10/04 04:04:21;;;;;;;0.93;0.80;;;17.10;64.00;15.90;97572.00;;;;4971368;28;20321;-89
2023/10/04 04:06:49;;;;;;;1.20;1.13;;;17.10;64.10;15.90;97563.00;;;;4963586;28;20593;-89
2023/10/04 04:09:17;;;;;;;1.83;0.90;;;17.00;64.10;15.80;97569.00;;;;4968946;28;20223;-89
2023/10/04 04:11:47;;;;;;;2.90;1.17;;;17.00;64.10;15.80;97564.00;;;;4969589;28;20731;-89
2023/10/04 04:14:18;;;;;;;1.53;0.80;;;16.90;63.90;15.70;97570.00;;;;4969206;28;20211;-89
2023/10/04 04:16:49;;;;;;;0.80;0.70;;;16.90;64.10;15.60;97572.00;;;;4962384;28;20291;-89
2023/10/04 04:19:22;;;;;;;1.50;0.87;;;16.80;64.10;15.60;97578.00;;;;4965546;28;20216;-90
2023/10/04 04:21:50;;;;;;;0.93;0.93;;;16.80;64.40;15.50;97586.00;;;;4949649;28;20290;-89
2023/10/04 04:24:17;;;;;;;1.10;1.00;;;16.70;64.40;15.50;97577.00;;;;4968232;28;20290;-89
2023/10/04 04:26:46;;;;;;;0.90;0.70;;;16.70;64.60;15.50;97573.00;;;;4972289;28;20254;-89
2023/10/04 04:29:14;;;;;;;1.00;0.90;;;16.60;64.60;15.40;97575.00;;;;4966200;28;20265;-88
2023/10/04 04:31:41;;;;;;;1.33;1.13;;;16.60;64.70;15.40;97571.00;;;;4971767;28;20247;-88
2023/10/04 04:34:13;;;;;;;0.70;0.70;;;16.60;64.80;15.40;97574.00;;;;4975389;28;20579;-88
2023/10/04 04:36:42;;;;;;;1.30;1.00;;;16.50;64.80;15.30;97566.00;;;;4971309;28;20251;-88
2023/10/04 04:39:13;;;;;;;0.90;0.70;;;16.50;65.10;15.30;97566.00;;;;4975755;28;20203;-89
2023/10/04 04:41:40;;;;;;;0.97;0.80;;;16.40;65.20;15.30;97557.00;;;;4974452;28;20203;-88
2023/10/04 04:44:08;;;;;;;1.00;0.87;;;16.40;65.30;15.30;97557.00;;;;4971389;28;20282;-88
2023/10/04 04:46:35;;;;;;;1.10;0.90;;;16.40;66.20;15.30;97562.00;;;;4976884;28;20321;-88
2023/10/04 04:49:02;;;;;;;1.10;1.00;;;16.40;65.60;15.30;97561.00;;;;4976849;28;20206;-88
2023/10/04 04:51:31;;;;;;;1.93;1.27;;;16.40;65.70;15.30;97559.00;;;;4977505;28;20203;-88
2023/10/04 04:53:59;;;;;;;1.13;1.03;;;16.40;65.80;15.30;97554.00;;;;4977239;28;20206;-89
2023/10/04 04:56:27;;;;;;;1.37;1.03;;;16.40;65.90;15.30;97558.00;;;;4977756;28;20763;-88
2023/10/04 04:58:56;;;;;;;1.17;1.03;;;16.40;65.80;15.30;97561.00;;;;4975652;28;20208;-89
2023/10/04 05:01:34;;;;;;;3.23;1.10;;;16.30;65.70;15.20;97559.00;;;;4977843;28;20214;-88
2023/10/04 05:04:06;;;;;;;1.57;1.23;;;16.30;65.80;15.20;97566.00;;;;4977190;28;20211;-88
2023/10/04 05:06:39;;;;;;;1.73;1.10;;;16.30;65.70;15.20;97560.00;;;;4976131;28;20242;-88
2023/10/04 05:09:12;;;;;;;0.90;0.90;;;16.30;65.70;15.20;97567.00;;;;4975913;28;20203;-88
2023/10/04 05:11:45;;;;;;;1.20;1.00;;;16.30;65.90;15.20;97557.00;;;;4973416;28;20320;-90
2023/10/04 05:14:12;;;;;;;2.30;1.00;;;16.30;65.80;15.10;97562.00;;;;4973801;28;20631;-88
2023/10/04 05:16:39;;;;;;;0.97;0.90;;;16.20;65.80;15.10;97560.00;;;;4976158;28;20230;-91
2023/10/04 05:19:10;;;;;;;1.73;1.07;;;16.30;65.90;15.10;97567.00;;;;4979270;28;20207;-91
2023/10/04 05:21:37;;;;;;;1.47;1.20;;;16.20;65.80;15.00;97563.00;;;;4978956;28;20310;-91
2023/10/04 05:24:05;;;;;;;1.30;1.00;;;16.20;65.80;15.10;97560.00;;;;4979442;28;20203;-91
2023/10/04 05:26:35;;;;;;;1.50;0.90;;;16.20;65.80;15.10;97547.00;;;;4977599;28;20231;-91
2023/10/04 05:29:13;;;;;;;0.97;0.90;;;16.20;65.90;15.10;97570.00;;;;4979322;28;20211;-91
2023/10/04 05:31:42;;;;;;;1.10;1.00;;;16.20;65.90;15.10;97570.00;;;;4979541;28;20298;-90
2023/10/04 05:34:10;;;;;;;1.30;1.20;;;16.20;65.70;15.10;97573.00;;;;4979822;28;20469;-91
2023/10/04 05:36:39;;;;;;;1.73;1.03;;;16.20;65.80;15.10;97582.00;;;;4979819;28;20199;-91
2023/10/04 05:39:08;;;;;;;2.00;1.30;;;16.20;65.70;15.10;97576.00;;;;4976297;28;20195;-91
2023/10/04 05:41:37;;;;;;;1.20;1.10;;;16.20;65.70;15.00;97585.00;;;;4975546;28;20215;-89
2023/10/04 05:44:04;;;;;;;1.60;0.80;;;16.20;65.70;15.00;97566.00;;;;4974521;28;20210;-91
2023/10/04 05:46:32;;;;;;;1.00;0.90;;;16.20;65.70;15.00;97584.00;;;;4975404;28;20292;-91
2023/10/04 05:49:00;;;;;;;1.10;1.00;;;16.20;65.60;15.00;97579.00;;;;4974983;28;20207;-90
2023/10/04 05:51:28;;;;;;;1.20;0.83;;;16.20;65.60;15.00;97594.00;;;;4975187;28;20208;-90
2023/10/04 05:53:57;;;;;;;1.20;1.10;;;16.20;65.70;15.00;97589.00;;;;4975902;28;20208;-91
2023/10/04 05:56:25;;;;;;;1.83;1.30;;;16.20;65.80;14.90;97595.00;;;;4975024;28;20280;-91
2023/10/04 05:58:54;;;;;;;1.60;1.47;;;16.10;65.90;14.90;97610.00;;;;4975646;28;20199;-91
2023/10/04 06:01:22;;;;;;;1.80;1.40;;;16.10;66.10;14.90;97606.00;;;;4963348;28;20295;-91
2023/10/04 06:03:49;;;;;;;1.60;1.50;;;16.10;66.30;14.90;97598.00;;;;4954602;28;20254;-90
2023/10/04 06:06:19;;;;;;;1.10;1.00;;;16.10;66.40;14.90;97620.00;;;;4954745;29;20236;-91
2023/10/04 06:08:47;;;;;;;1.37;1.27;;;16.50;67.00;14.90;97602.00;;;;4967017;28;20265;-87
2023/10/04 06:11:14;;;;;;;1.73;1.40;;;16.00;66.90;15.00;97629.00;;;;4979158;28;20215;-87
2023/10/04 06:13:41;;;;;;;0.90;0.87;;;16.10;66.90;15.00;97618.00;;;;4972231;28;20290;-86
2023/10/04 06:16:11;;;;;;;2.13;1.20;;;16.10;66.90;15.00;97634.00;;;;4975528;28;20234;-88
2023/10/04 06:18:41;;;;;;;1.40;1.30;;;16.10;67.20;15.00;97625.00;;;;4971529;28;20208;-87
2023/10/04 06:21:09;;;;;;;2.90;1.83;;;16.10;67.30;15.00;97643.00;;;;4982037;28;20203;-87
2023/10/04 06:23:37;;;;;;;1.77;1.43;;;16.10;67.60;15.00;97636.00;;;;4980306;28;20693;-87
2023/10/04 06:26:05;;;;;;;1.80;1.40;;;16.10;67.80;15.00;97632.00;;;;4978208;28;20281;-87
2023/10/04 06:28:32;;;;;;;1.53;1.43;;;16.00;68.00;15.10;97641.00;;;;4976771;28;20298;-87
2023/10/04 06:31:00;;;;;;;2.17;1.30;;;16.00;68.10;15.10;97644.00;;;;4977605;28;20207;-87
2023/10/04 06:34:25;;;;;;;1.40;1.30;;;16.00;68.10;15.10;97646.00;;;;4938499;28;20284;-87
2023/10/04 06:37:05;;;;;;;1.73;1.33;;;16.10;68.50;15.10;97642.00;;;;4939396;28;20386;-88
2023/10/04 06:39:45;;;;;;;1.53;1.43;;;16.00;67.90;15.20;97639.00;;;;4928841;28;20446;-88
2023/10/04 06:42:32;;;;;;;2.43;1.33;;;15.40;67.40;15.20;97662.00;;;;4939338;28;20308;-89
2023/10/04 06:44:59;;;;;;;2.30;1.60;;;16.20;68.10;15.20;97662.00;;;;4962117;28;20207;-87
2023/10/04 06:47:27;;;;;;;1.50;1.40;;;16.20;68.20;15.30;97674.00;;;;4968010;28;20227;-89
2023/10/04 06:49:58;;;;;;;1.80;1.50;;;16.20;68.40;15.30;97669.00;;;;4975871;28;20277;-86
2023/10/04 06:52:25;;;;;;;1.80;1.70;;;16.30;68.70;15.30;97672.00;;;;4967894;28;20286;-86
2023/10/04 06:54:52;;;;;;;1.33;1.23;;;16.30;68.80;15.30;97669.00;;;;4976156;28;20223;-87
2023/10/04 06:57:20;;;;;;;2.13;1.40;;;16.30;69.10;15.40;97679.00;;;;4971167;28;20216;-87
2023/10/04 06:59:48;;;;;;;1.50;1.33;;;16.30;69.10;15.40;97665.00;;;;4969619;28;20208;-86
2023/10/04 07:02:15;;;;;;;2.33;1.80;;;16.40;69.40;15.50;97677.00;;;;4976212;28;20211;-86
2023/10/04 07:04:42;;;;;;;1.90;1.33;;;16.40;69.60;15.50;97675.00;;;;4970901;28;20224;-87
2023/10/04 07:07:10;;;;;;;1.30;1.17;;;16.40;69.60;15.60;97674.00;;;;4965864;28;20259;-86
2023/10/04 07:09:38;;;;;;;1.70;1.30;;;16.50;69.80;15.70;97677.00;;;;4970901;28;20239;-86
2023/10/04 07:12:05;;;;;;;2.63;1.63;;;16.50;69.90;15.70;97677.00;;;;4966064;28;20208;-87
2023/10/04 07:14:33;;;;;;;3.67;1.90;;;16.60;70.00;15.80;97669.00;;;;4968249;28;20265;-87
2023/10/04 07:17:00;;;;;;;2.10;1.90;;;16.60;70.10;15.80;97693.00;;;;4977884;28;20293;-86
2023/10/04 07:19:29;;;;;;;1.30;1.20;;;16.70;70.30;15.90;97686.00;;;;4976640;28;20218;-87
2023/10/04 07:21:57;;;;;;;2.93;1.50;;;16.70;70.30;16.00;97688.00;;;;4966607;28;20200;-87
2023/10/04 07:24:25;;;;;;;2.40;1.60;;;16.80;70.40;16.00;97685.00;;;;4967395;28;20207;-87
2023/10/04 07:26:55;;;;;;;1.87;1.67;;;16.80;70.30;16.10;97684.00;;;;4975983;28;20402;-86
2023/10/04 07:29:22;;;;;;;1.73;1.57;;;16.90;70.30;16.20;97692.00;;;;4967392;28;20215;-87
2023/10/04 07:31:51;;;;;;;2.17;1.47;;;17.00;70.60;16.30;97696.00;;;;4975277;28;20226;-86
2023/10/04 07:34:18;;;;;;;1.40;1.30;;;17.10;70.80;16.40;97694.00;;;;4966512;28;20242;-86
2023/10/04 07:36:45;;;;;;;1.67;1.40;;;17.10;70.80;16.50;97683.00;;;;4974358;28;20285;-86
2023/10/04 07:39:15;;;;;;;1.67;1.47;;;17.20;70.80;16.60;97690.00;;;;4974270;28;20241;-86
2023/10/04 07:41:44;;;;;;;2.33;2.00;;;17.30;70.60;16.70;97692.00;;;;4975476;28;20203;-87
2023/10/04 07:44:11;;;;;;;3.20;1.43;;;17.40;70.50;16.80;97682.00;;;;4975085;28;20269;-86
2023/10/04 07:46:39;;;;;;;1.70;1.23;;;17.50;70.20;16.90;97686.00;;;;4974003;28;20691;-87
2023/10/04 07:49:06;;;;;;;1.80;1.53;;;17.60;70.20;17.00;97693.00;;;;4974632;28;20203;-86
2023/10/04 07:51:39;;;;;;;1.97;1.77;;;17.70;70.20;17.10;97687.00;;;;4974679;28;20234;-87
2023/10/04 07:54:07;;;;;;;1.47;1.37;;;17.80;70.10;17.20;97690.00;;;;4974138;28;20221;-86
2023/10/04 07:56:35;;;;;;;1.83;1.20;;;17.90;69.90;17.30;97690.00;;;;4974353;28;20290;-86
2023/10/04 07:59:09;;;;;;;1.53;1.27;;;18.00;69.70;17.40;97687.00;;;;4973395;28;20238;-87
2023/10/04 08:01:39;;;;;;;2.80;1.60;;;18.10;69.70;17.50;97682.00;;;;4975510;28;20226;-87
2023/10/04 08:04:07;;;;;;;1.67;1.30;;;18.20;69.40;17.60;97684.00;;;;4967246;28;20216;-87
2023/10/04 08:06:49;;;;;;;1.67;1.57;;;18.30;69.30;17.60;97684.00;;;;4973522;28;20585;-87
2023/10/04 08:09:21;;;;;;;1.47;1.37;;;18.40;69.20;17.70;97681.00;;;;4973465;28;20207;-87
2023/10/04 08:11:58;;;;;;;2.23;1.73;;;18.50;68.90;17.80;97685.00;;;;4973656;28;20679;-87
2023/10/04 08:14:31;;;;;;;1.70;1.50;;;18.50;68.90;17.90;97684.00;;;;4961969;28;20241;-87
2023/10/04 08:17:07;;;;;;;2.50;1.30;;;18.60;68.70;18.00;97686.00;;;;4970668;28;20253;-87
2023/10/04 08:19:49;;;;;;;1.97;1.50;;;18.70;68.50;18.10;97689.00;;;;4974170;28;20242;-87
2023/10/04 08:22:23;;;;;;;1.50;1.27;;;18.80;68.50;18.20;97696.00;;;;4974437;28;20209;-87
2023/10/04 08:24:52;;;;;;;1.63;1.43;;;18.90;68.20;18.20;97684.00;;;;4973571;28;20207;-87
2023/10/04 08:27:19;;;;;;;3.17;1.30;;;18.90;68.00;18.30;97691.00;;;;4970598;28;20239;-87
2023/10/04 08:30:05;;;;;;;2.30;1.13;;;19.00;67.70;18.40;97682.00;;;;4967916;28;20211;-86
2023/10/04 08:32:40;;;;;;;1.47;1.37;;;19.10;67.50;18.50;97683.00;;;;4973045;28;20204;-87
2023/10/04 08:35:21;;;;;;;1.70;1.33;;;19.20;67.50;18.50;97678.00;;;;4973952;28;20214;-87
2023/10/04 08:37:57;;;;;;;1.83;1.40;;;19.20;67.50;18.60;97674.00;;;;4973336;28;20317;-87
2023/10/04 08:40:39;;;;;;;2.13;1.70;;;19.30;67.40;18.70;97676.00;;;;4966481;28;20207;-87
2023/10/04 08:43:25;;;;;;;1.50;1.33;;;19.40;67.00;18.70;97674.00;;;;4973763;28;20201;-87
2023/10/04 08:46:08;;;;;;;1.50;1.40;;;19.50;66.80;18.80;97677.00;;;;4972057;28;20269;-87
2023/10/04 08:48:53;;;;;;;1.77;1.30;;;19.50;66.70;18.90;97678.00;;;;4957736;28;20258;-87
2023/10/04 08:51:51;;;;;;;1.60;1.27;;;19.60;66.70;18.90;97685.00;;;;4973678;28;20207;-87
2023/10/04 08:54:25;;;;;;;1.60;1.27;;;19.70;66.20;19.00;97683.00;;;;4962545;28;20288;-87
2023/10/04 08:57:14;;;;;;;1.60;1.30;;;19.70;66.30;19.10;97676.00;;;;4961020;28;20230;-87
2023/10/04 08:59:46;;;;;;;1.57;1.20;;;19.80;66.10;19.20;97674.00;;;;4971791;28;20216;-87
2023/10/04 09:02:29;;;;;;;1.27;1.10;;;19.90;66.10;19.30;97673.00;;;;4971242;28;20210;-87
2023/10/04 09:04:59;;;;;;;1.00;0.90;;;19.90;66.10;19.30;97678.00;;;;4971218;28;20246;-87
2023/10/04 09:07:35;;;;;;;1.50;1.40;;;20.00;65.90;19.40;97682.00;;;;4970774;28;20229;-87
2023/10/04 09:10:06;;;;;;;6.00;1.57;;;20.10;65.40;19.50;97672.00;;;;4971503;28;20206;-87
2023/10/04 09:13:06;;;;;;;1.50;1.20;;;20.20;65.50;19.70;97679.00;;;;4971479;28;20678;-87
2023/10/04 09:15:33;;;;;;;2.90;1.20;;;20.30;65.80;19.80;97685.00;;;;4976530;28;20721;-87
2023/10/04 09:18:04;;;;;;;1.67;1.20;;;20.40;65.60;19.90;97679.00;;;;4968405;28;20237;-87
2023/10/04 09:20:36;;;;;;;1.30;1.13;;;20.50;65.40;20.00;97674.00;;;;4975672;28;20744;-87
2023/10/04 09:23:20;;;;;;;1.17;1.03;;;20.60;64.90;20.10;97674.00;;;;4975654;28;20207;-87
2023/10/04 09:25:47;;;;;;;1.70;1.10;;;20.80;64.50;20.30;97680.00;;;;4975588;28;20204;-87
2023/10/04 09:28:16;;;;;;;1.10;1.00;;;20.80;64.60;20.30;97679.00;;;;4975039;28;20649;-88
2023/10/04 09:30:43;;;;;;;1.10;1.00;;;21.00;63.90;20.40;97673.00;;;;4974173;28;20681;-87
2023/10/04 09:33:28;;;;;;;1.70;1.13;;;21.00;63.50;20.50;97671.00;;;;4974302;28;20264;-87
2023/10/04 09:35:56;;;;;;;2.03;1.10;;;21.10;63.10;20.60;97668.00;;;;4974369;28;20643;-87
2023/10/04 09:38:25;;;;;;;2.60;1.33;;;21.20;63.00;20.60;97672.00;;;;4976201;28;20235;-87
2023/10/04 09:40:53;;;;;;;1.53;1.30;;;21.30;62.80;20.70;97664.00;;;;4969706;28;20659;-87
2023/10/04 09:43:35;;;;;;;2.00;1.30;;;21.30;63.00;20.80;97654.00;;;;4967346;28;20199;-88
2023/10/04 09:46:04;;;;;;;1.80;1.13;;;21.50;61.90;20.90;97659.00;;;;4974722;28;20238;-88
2023/10/04 09:48:37;;;;;;;1.80;1.47;;;21.50;62.00;21.00;97667.00;;;;4975905;28;20211;-87
2023/10/04 09:51:07;;;;;;;1.40;1.10;;;21.60;61.70;21.10;97651.00;;;;4968116;28;20235;-88
2023/10/04 09:53:38;;;;;;;1.43;1.10;;;21.70;61.40;21.20;97649.00;;;;4969558;28;20240;-87
2023/10/04 09:56:06;;;;;;;1.17;1.00;;;21.80;61.40;21.30;97639.00;;;;4972934;28;20214;-87
2023/10/04 09:58:34;;;;;;;1.40;1.10;;;21.90;61.10;21.40;97650.00;;;;4971638;28;20203;-87
2023/10/04 10:01:11;;;;;;;1.00;0.90;;;21.90;60.30;21.40;97655.00;;;;4972582;28;20199;-87
2023/10/04 10:03:48;;;;;;;2.37;1.00;;;22.00;59.30;21.50;97651.00;;;;4963896;28;20218;-87
2023/10/04 10:06:24;;;;;;;2.23;1.13;;;22.10;59.40;21.50;97657.00;;;;4968620;28;20254;-87
2023/10/04 10:08:58;;;;;;;5.30;1.30;;;22.10;59.10;21.60;97647.00;;;;4961130;28;20196;-88
2023/10/04 10:14:42;;;;;;;1.97;1.20;;;22.30;59.10;21.80;97643.00;;;;4973757;28;20216;-87
2023/10/04 10:17:12;;;;;;;2.37;0.80;;;22.40;59.40;21.90;97648.00;;;;4971237;28;20228;-87
2023/10/04 10:19:40;;;;;;;2.00;1.20;;;22.40;59.20;22.00;97652.00;;;;4963302;28;20250;-87
2023/10/04 10:22:11;;;;;;;1.60;1.00;;;22.50;58.50;22.10;97646.00;;;;4974027;28;20294;-88
2023/10/04 10:24:48;;;;;;;1.27;0.90;;;22.60;58.30;22.20;97640.00;;;;4974247;28;20246;-87
2023/10/04 10:27:22;;;;;;;1.33;1.13;;;22.70;56.70;22.30;97643.00;;;;4974371;28;20330;-87
2023/10/04 10:29:51;;;;;;;2.07;1.37;;;22.80;57.00;22.50;97647.00;;;;4967885;28;20213;-88
2023/10/04 10:32:22;;;;;;;1.20;1.10;;;22.90;57.40;22.60;97636.00;;;;4975381;28;20254;-87
2023/10/04 10:34:52;;;;;;;0.90;0.70;;;23.00;57.00;22.70;97635.00;;;;4975464;28;20217;-87
2023/10/04 10:37:23;;;;;;;1.17;1.07;;;23.10;56.90;22.80;97637.00;;;;4970081;28;20272;-87
2023/10/04 10:39:52;;;;;;;3.50;0.93;;;23.20;56.40;22.80;97639.00;;;;4971802;28;20247;-87
2023/10/04 10:42:21;;;;;;;3.30;1.30;;;23.30;56.00;22.80;97623.00;;;;4973538;28;20207;-88
2023/10/04 10:44:51;;;;;;;2.50;1.40;;;23.30;55.60;22.80;97613.00;;;;4967896;28;20238;-88
2023/10/04 10:47:23;;;;;;;1.00;0.80;;;23.30;55.40;22.80;97609.00;;;;4972035;28;20333;-88
2023/10/04 10:49:58;;;;;;;0.80;0.73;;;23.30;55.80;22.80;97613.00;;;;4971949;28;20224;-88
2023/10/04 10:52:30;;;;;;;2.80;1.27;;;23.30;55.40;22.80;97609.00;;;;4971057;28;20231;-88
2023/10/04 10:55:00;;;;;;;1.13;1.00;;;23.30;55.20;22.80;97615.00;;;;4955433;28;20288;-88
2023/10/04 10:57:29;;;;;;;1.80;0.90;;;23.30;54.90;22.80;97615.00;;;;4956672;28;20329;-88
2023/10/04 10:59:58;;;;;;;1.67;0.90;;;23.30;54.80;22.80;97619.00;;;;4969162;28;20575;-88
2023/10/04 11:02:27;;;;;;;0.80;0.80;;;23.30;54.60;22.80;97614.00;;;;4965018;28;20287;-88
2023/10/04 11:04:56;;;;;;;1.00;0.93;;;23.30;54.40;22.80;97618.00;;;;4963558;28;20219;-88
2023/10/04 11:07:26;;;;;;;1.90;0.77;;;23.30;54.30;22.80;97613.00;;;;4960366;28;20249;-88
2023/10/04 11:09:58;;;;;;;0.93;0.83;;;23.30;54.30;22.80;97620.00;;;;4964505;28;20201;-88
2023/10/04 11:12:25;;;;;;;1.97;1.13;;;23.40;54.10;22.90;97619.00;;;;4963843;28;20202;-88
2023/10/04 11:14:54;;;;;;;1.00;0.80;;;23.40;54.40;22.80;97608.00;;;;4967034;28;20198;-88